Time;durP1;ratioP1;P1;durP2;ratioP2;P2;SDS_P1;SDS_P2;PMS_P1;PMS_P2;Temp;Humidity;BMP_temperature;BMP_pressure;BME280_temperature;BME280_humidity;BME280_pressure;Samples;Min_cycle;Max_cycle;Signal;HPM_P1;HPM_P2
2024/04/11 00:00:09;;;;;;;2.20;1.40;;;8.70;81.40;;;;;;6246331;23;20148;-74
2024/04/11 00:02:43;;;;;;;2.83;1.60;;;8.60;81.50;;;;;;6245992;23;20485;-74
2024/04/11 00:05:09;;;;;;;2.17;1.20;;;8.60;81.70;;;;;;6245917;23;20443;-74
2024/04/11 00:07:35;;;;;;;2.57;1.27;;;8.60;81.60;;;;;;6245928;22;20467;-74
2024/04/11 00:10:01;;;;;;;2.70;1.30;;;8.60;81.50;;;;;;6246299;23;20724;-75
2024/04/11 00:12:27;;;;;;;3.60;1.90;;;8.60;81.30;;;;;;6246061;23;20364;-74
2024/04/11 00:14:55;;;;;;;1.83;1.00;;;8.70;81.20;;;;;;6245920;23;20145;-76
2024/04/11 00:17:21;;;;;;;3.60;1.33;;;8.70;81.00;;;;;;6245457;22;20467;-74
2024/04/11 00:19:47;;;;;;;3.43;1.50;;;8.70;80.70;;;;;;6246346;23;20360;-74
2024/04/11 00:22:13;;;;;;;4.60;1.53;;;8.70;80.30;;;;;;6245936;23;20411;-75
2024/04/11 00:24:39;;;;;;;4.80;1.67;;;8.70;80.80;;;;;;6245685;23;20424;-75
2024/04/11 00:27:04;;;;;;;2.57;1.20;;;8.70;79.80;;;;;;6246154;22;20165;-74
2024/04/11 00:29:31;;;;;;;4.10;1.47;;;8.80;79.70;;;;;;6246335;23;20647;-74
2024/04/11 00:31:57;;;;;;;3.40;1.73;;;8.80;79.50;;;;;;6221353;23;20457;-75
2024/04/11 00:34:23;;;;;;;3.30;1.60;;;8.80;79.40;;;;;;6247110;23;20367;-74
2024/04/11 00:36:53;;;;;;;2.57;1.27;;;8.70;79.20;;;;;;6221127;23;20193;-73
2024/04/11 00:39:20;;;;;;;2.70;1.00;;;8.80;79.40;;;;;;6248070;23;20530;-75
2024/04/11 00:41:47;;;;;;;2.53;1.30;;;8.80;79.20;;;;;;6248963;23;20368;-75
2024/04/11 00:44:16;;;;;;;2.47;1.00;;;8.70;79.00;;;;;;6249757;23;20591;-74
2024/04/11 00:46:44;;;;;;;4.03;1.23;;;8.70;78.90;;;;;;6253545;22;20414;-75
2024/04/11 00:49:10;;;;;;;2.40;1.10;;;8.70;78.80;;;;;;6253142;23;20435;-73
2024/04/11 00:51:36;;;;;;;3.47;1.27;;;8.70;79.00;;;;;;6251270;23;20606;-73
2024/04/11 00:54:02;;;;;;;4.17;1.40;;;8.70;79.00;;;;;;6250407;23;20357;-74
2024/04/11 00:56:28;;;;;;;2.60;1.30;;;8.60;78.80;;;;;;6250152;22;20183;-75
2024/04/11 00:58:55;;;;;;;2.10;1.00;;;8.60;78.90;;;;;;6250198;23;20375;-75
2024/04/11 01:01:20;;;;;;;4.00;1.10;;;8.60;78.90;;;;;;6248256;23;20367;-76
2024/04/11 01:03:46;;;;;;;2.87;1.00;;;8.70;79.00;;;;;;6247499;23;20443;-75
2024/04/11 01:06:13;;;;;;;1.40;0.90;;;8.70;78.80;;;;;;6247379;22;20169;-75
2024/04/11 01:08:38;;;;;;;2.27;0.97;;;8.70;78.70;;;;;;6247460;23;20268;-74
2024/04/11 01:11:04;;;;;;;4.50;1.40;;;8.70;78.60;;;;;;6247110;23;20662;-74
2024/04/11 01:13:30;;;;;;;2.23;1.10;;;8.70;78.50;;;;;;6247678;23;20140;-74
2024/04/11 01:15:58;;;;;;;4.07;1.20;;;8.70;78.40;;;;;;6246914;22;20126;-74
2024/04/11 01:18:25;;;;;;;2.57;1.10;;;8.70;78.30;;;;;;6247845;23;20153;-73
2024/04/11 01:20:54;;;;;;;2.73;1.37;;;8.70;78.20;;;;;;6247259;23;20506;-74
2024/04/11 01:23:19;;;;;;;2.13;1.10;;;8.70;78.20;;;;;;6220722;23;20380;-75
2024/04/11 01:25:45;;;;;;;2.00;1.00;;;8.70;78.20;;;;;;6247204;22;20352;-74
2024/04/11 01:28:10;;;;;;;2.57;1.10;;;8.70;78.20;;;;;;6247331;23;20137;-75
2024/04/11 01:30:36;;;;;;;5.93;2.00;;;8.60;78.30;;;;;;6246322;23;20148;-74
2024/04/11 01:33:01;;;;;;;1.40;0.93;;;8.60;78.40;;;;;;6246900;23;20129;-75
2024/04/11 01:35:30;;;;;;;2.27;1.40;;;8.60;78.60;;;;;;6246342;23;20134;-75
2024/04/11 01:37:58;;;;;;;3.03;1.30;;;8.60;78.80;;;;;;6247171;22;20165;-77
2024/04/11 01:40:25;;;;;;;1.90;1.23;;;8.50;79.00;;;;;;6246922;23;20356;-73
2024/04/11 01:42:52;;;;;;;2.23;1.13;;;8.50;79.30;;;;;;6220625;23;20380;-74
2024/04/11 01:45:17;;;;;;;2.80;1.20;;;8.50;79.40;;;;;;6246922;23;20380;-75
2024/04/11 01:47:43;;;;;;;14.77;2.37;;;8.50;79.70;;;;;;6247571;22;20420;-74
2024/04/11 01:50:08;;;;;;;4.30;1.30;;;8.50;79.90;;;;;;6246855;23;20172;-74
2024/04/11 01:52:34;;;;;;;4.77;1.63;;;8.50;80.00;;;;;;6247206;23;20138;-73
2024/04/11 01:55:01;;;;;;;2.30;1.93;;;8.50;80.10;;;;;;6246503;23;20134;-74
2024/04/11 01:57:27;;;;;;;1.97;1.03;;;8.40;80.20;;;;;;6247434;22;20169;-75
2024/04/11 01:59:53;;;;;;;3.50;1.20;;;8.40;80.40;;;;;;6247174;23;20360;-75
2024/04/11 02:02:19;;;;;;;1.70;1.10;;;8.40;80.60;;;;;;6247093;23;20382;-75
2024/04/11 02:04:45;;;;;;;2.33;1.30;;;8.30;80.70;;;;;;6246117;23;20798;-75
2024/04/11 02:07:11;;;;;;;5.40;1.57;;;8.30;81.00;;;;;;6246580;22;20466;-74
2024/04/11 02:09:36;;;;;;;3.33;1.30;;;8.30;81.10;;;;;;6247112;23;20169;-75
2024/04/11 02:12:02;;;;;;;2.43;1.40;;;8.30;81.20;;;;;;6247054;23;20179;-74
2024/04/11 02:14:29;;;;;;;1.90;1.17;;;8.30;81.30;;;;;;6246078;23;20159;-74
2024/04/11 02:16:56;;;;;;;1.60;1.03;;;8.30;81.40;;;;;;6246785;22;20399;-75
2024/04/11 02:19:21;;;;;;;1.87;1.20;;;8.30;81.50;;;;;;6245844;23;20388;-73
2024/04/11 02:21:48;;;;;;;4.60;1.63;;;8.30;81.50;;;;;;6246638;23;20594;-73
2024/04/11 02:24:17;;;;;;;2.07;1.30;;;8.30;81.50;;;;;;6246063;23;20653;-73
2024/04/11 02:26:48;;;;;;;4.40;1.10;;;8.30;81.60;;;;;;6246840;22;20391;-72
2024/04/11 02:29:15;;;;;;;3.07;1.27;;;8.30;81.60;;;;;;6246047;23;20883;-75
2024/04/11 02:31:42;;;;;;;1.50;1.10;;;8.30;81.70;;;;;;6247190;23;20447;-74
2024/04/11 02:34:08;;;;;;;2.87;1.57;;;8.30;81.80;;;;;;6246207;23;20360;-74
2024/04/11 02:36:34;;;;;;;3.17;1.50;;;8.30;81.90;;;;;;6245851;22;20700;-73
2024/04/11 02:39:01;;;;;;;9.20;2.77;;;8.30;82.30;;;;;;6246233;23;20791;-72
2024/04/11 02:41:27;;;;;;;4.00;1.57;;;8.30;83.20;;;;;;6246577;23;20392;-73
2024/04/11 02:43:55;;;;;;;3.53;1.50;;;8.30;83.80;;;;;;6247325;23;20628;-75
2024/04/11 02:46:21;;;;;;;2.90;1.40;;;8.30;84.60;;;;;;6245805;22;20392;-74
2024/04/11 02:48:47;;;;;;;1.73;1.37;;;8.30;85.20;;;;;;6247099;23;20470;-73
2024/04/11 02:51:14;;;;;;;4.17;1.77;;;8.30;85.50;;;;;;6246519;23;20444;-73
2024/04/11 02:53:41;;;;;;;3.10;1.53;;;8.40;85.80;;;;;;6246488;23;20399;-74
2024/04/11 02:56:07;;;;;;;3.70;1.60;;;8.40;85.80;;;;;;6246045;22;20392;-74
2024/04/11 02:58:34;;;;;;;2.37;1.50;;;8.40;85.80;;;;;;6246177;23;20450;-74
2024/04/11 03:01:04;;;;;;;1.93;1.33;;;8.50;86.00;;;;;;6245867;23;20391;-73
2024/04/11 03:03:34;;;;;;;2.70;1.23;;;8.50;86.00;;;;;;6246485;23;20459;-74
2024/04/11 03:06:11;;;;;;;2.77;1.60;;;8.50;85.90;;;;;;6245891;22;20353;-73
2024/04/11 03:08:41;;;;;;;3.23;1.60;;;8.50;85.80;;;;;;6247052;23;20400;-74
2024/04/11 03:11:07;;;;;;;2.83;1.83;;;8.60;85.70;;;;;;6246466;23;20359;-72
2024/04/11 03:13:33;;;;;;;3.17;1.53;;;8.60;85.60;;;;;;6246397;23;20387;-73
2024/04/11 03:16:00;;;;;;;3.10;1.63;;;8.60;85.70;;;;;;6245485;22;20357;-74
2024/04/11 03:18:27;;;;;;;3.30;1.63;;;8.50;85.80;;;;;;6246002;23;20487;-75
2024/04/11 03:20:56;;;;;;;2.67;1.50;;;8.50;86.10;;;;;;6245731;23;20361;-74
2024/04/11 03:23:24;;;;;;;2.70;1.70;;;8.50;86.20;;;;;;6246954;23;20414;-75
2024/04/11 03:25:50;;;;;;;3.20;1.53;;;8.50;86.50;;;;;;6247603;22;20413;-75
2024/04/11 03:28:19;;;;;;;3.10;1.70;;;8.50;86.70;;;;;;6248857;23;20470;-74
2024/04/11 03:31:05;;;;;;;6.50;1.57;;;8.50;87.10;;;;;;6219359;23;20387;-74
2024/04/11 03:33:35;;;;;;;3.17;1.57;;;8.40;87.30;;;;;;6245768;23;20376;-74
2024/04/11 03:36:05;;;;;;;4.23;1.50;;;8.40;87.80;;;;;;6245774;22;20356;-74
2024/04/11 03:38:31;;;;;;;2.33;1.30;;;8.40;88.30;;;;;;6246366;23;20373;-75
2024/04/11 03:40:58;;;;;;;5.37;1.70;;;8.40;88.70;;;;;;6245666;23;20368;-75
2024/04/11 03:43:27;;;;;;;2.73;1.40;;;8.40;89.20;;;;;;6219036;23;20450;-74
2024/04/11 03:46:06;;;;;;;2.03;1.30;;;8.30;89.60;;;;;;6245503;22;20446;-75
2024/04/11 03:48:32;;;;;;;3.87;1.73;;;8.30;90.00;;;;;;6245381;23;20430;-73
2024/04/11 03:51:18;;;;;;;4.20;1.60;;;8.30;90.40;;;;;;6245279;23;20764;-73
2024/04/11 03:53:45;;;;;;;4.20;1.50;;;8.30;90.60;;;;;;6245441;23;20359;-73
2024/04/11 03:56:14;;;;;;;4.37;2.03;;;8.30;90.80;;;;;;6246515;22;20392;-74
2024/04/11 03:58:43;;;;;;;7.10;2.70;;;8.30;91.00;;;;;;6250198;23;20677;-75
2024/04/11 04:01:13;;;;;;;3.47;1.60;;;8.30;91.10;;;;;;6254015;23;20352;-75
2024/04/11 04:03:42;;;;;;;3.00;1.97;;;8.30;91.40;;;;;;6253322;23;20355;-73
2024/04/11 04:06:08;;;;;;;4.17;2.03;;;8.30;91.70;;;;;;6254751;22;20816;-75
2024/04/11 04:08:38;;;;;;;5.30;2.47;;;8.30;91.70;;;;;;6255740;23;20415;-75
2024/04/11 04:11:05;;;;;;;7.03;1.87;;;8.30;91.90;;;;;;6255772;23;20443;-75
2024/04/11 04:13:32;;;;;;;2.80;1.70;;;8.40;92.50;;;;;;6256248;23;20364;-73
2024/04/11 04:15:58;;;;;;;3.73;2.17;;;8.40;92.20;;;;;;6257834;22;20372;-74
2024/04/11 04:18:25;;;;;;;3.93;1.70;;;8.40;92.30;;;;;;6254541;23;20395;-75
2024/04/11 04:20:58;;;;;;;3.93;1.93;;;8.40;92.40;;;;;;6230103;23;20375;-73
2024/04/11 04:23:24;;;;;;;3.67;2.00;;;8.40;92.50;;;;;;6230183;23;20390;-74
2024/04/11 04:25:59;;;;;;;4.90;2.33;;;8.40;92.60;;;;;;6254680;22;20446;-74
2024/04/11 04:28:32;;;;;;;6.33;2.57;;;8.40;92.70;;;;;;6254592;23;20411;-73
2024/04/11 04:31:17;;;;;;;3.80;1.93;;;8.50;92.90;;;;;;6255644;23;20360;-75
2024/04/11 04:33:54;;;;;;;5.20;2.20;;;8.50;93.00;;;;;;6253383;23;20356;-75
2024/04/11 04:36:24;;;;;;;7.63;2.50;;;8.50;93.20;;;;;;6256851;22;20438;-75
2024/04/11 04:38:51;;;;;;;4.10;2.30;;;8.50;93.30;;;;;;6258737;23;20761;-73
2024/04/11 04:41:18;;;;;;;6.03;3.53;;;8.50;93.40;;;;;;6257394;23;20369;-75
2024/04/11 04:43:53;;;;;;;5.03;2.37;;;8.50;93.50;;;;;;6205740;23;20380;-75
2024/04/11 04:46:20;;;;;;;6.33;2.70;;;8.50;93.60;;;;;;6256611;22;20403;-76
2024/04/11 04:48:46;;;;;;;6.70;2.40;;;8.60;93.60;;;;;;6230907;23;20436;-76
2024/04/11 04:51:13;;;;;;;3.47;2.47;;;8.70;93.50;;;;;;6229639;23;20379;-78
2024/04/11 04:53:39;;;;;;;3.27;2.23;;;8.70;93.40;;;;;;6230087;23;20391;-77
2024/04/11 04:56:07;;;;;;;5.77;2.03;;;8.80;93.20;;;;;;6259383;22;20483;-76
2024/04/11 04:58:33;;;;;;;6.50;2.53;;;8.90;93.10;;;;;;6205317;23;20446;-75
2024/04/11 05:01:00;;;;;;;8.50;2.20;;;8.90;92.70;;;;;;6258245;23;20454;-75
2024/04/11 05:03:28;;;;;;;6.33;2.40;;;9.00;92.50;;;;;;6230600;23;20159;-76
2024/04/11 05:05:54;;;;;;;10.60;2.20;;;9.10;92.30;;;;;;6257981;22;20707;-77
2024/04/11 05:08:23;;;;;;;5.73;2.10;;;9.20;92.00;;;;;;6231788;23;20558;-79
2024/04/11 05:10:55;;;;;;;3.77;2.00;;;9.20;91.90;;;;;;6232023;23;20395;-76
2024/04/11 05:13:26;;;;;;;9.63;2.80;;;9.30;91.60;;;;;;6259302;23;20363;-74
2024/04/11 05:15:57;;;;;;;4.43;1.67;;;9.30;91.50;;;;;;6231645;22;20364;-75
2024/04/11 05:18:23;;;;;;;3.93;1.80;;;9.30;91.60;;;;;;6233759;23;20647;-77
2024/04/11 05:20:51;;;;;;;3.23;2.00;;;9.40;91.60;;;;;;6233270;23;20512;-79
2024/04/11 05:23:17;;;;;;;6.10;2.07;;;9.40;91.50;;;;;;6262168;23;20164;-81
2024/04/11 05:25:43;;;;;;;3.63;1.77;;;9.50;91.50;;;;;;6260853;23;20420;-76
2024/04/11 05:28:09;;;;;;;3.93;2.10;;;9.50;91.40;;;;;;6261694;22;20388;-78
2024/04/11 05:30:40;;;;;;;3.30;1.70;;;9.60;91.30;;;;;;6262348;23;20134;-76
2024/04/11 05:33:08;;;;;;;5.60;2.23;;;9.60;91.10;;;;;;6260505;23;20383;-76
2024/04/11 05:35:35;;;;;;;5.93;2.37;;;9.70;91.00;;;;;;6236205;23;20376;-77
2024/04/11 05:38:00;;;;;;;4.07;1.80;;;9.70;90.70;;;;;;6239552;23;20717;-79
2024/04/11 05:40:27;;;;;;;5.90;3.00;;;9.80;90.50;;;;;;6263044;23;20364;-76
2024/04/11 05:42:54;;;;;;;4.00;2.20;;;9.80;90.40;;;;;;6262988;23;20376;-75
2024/04/11 05:45:23;;;;;;;10.17;2.30;;;9.90;90.20;;;;;;6233237;23;20356;-79
2024/04/11 05:47:51;;;;;;;2.70;1.90;;;9.90;90.00;;;;;;6233021;23;20443;-78
2024/04/11 05:50:18;;;;;;;4.77;1.97;;;10.00;88.90;;;;;;6210005;23;20563;-81
2024/04/11 05:52:49;;;;;;;5.03;1.47;;;10.00;88.30;;;;;;6206228;23;20475;-78
2024/04/11 05:55:16;;;;;;;2.70;1.80;;;10.10;88.20;;;;;;6203094;23;20420;-78
2024/04/11 05:57:43;;;;;;;2.90;1.80;;;10.10;88.10;;;;;;6203021;23;20400;-76
2024/04/11 06:00:12;;;;;;;5.80;2.27;;;10.20;87.70;;;;;;6226554;23;20380;-77
2024/04/11 06:02:38;;;;;;;3.40;2.00;;;10.30;87.50;;;;;;6177356;23;20392;-77
2024/04/11 06:05:07;;;;;;;4.73;1.50;;;10.40;87.10;;;;;;6201217;23;20442;-78
2024/04/11 06:07:39;;;;;;;4.30;2.03;;;10.50;86.70;;;;;;6202557;23;20404;-77
2024/04/11 06:10:05;;;;;;;3.53;1.60;;;10.60;86.10;;;;;;6202559;23;20425;-77
2024/04/11 06:12:35;;;;;;;4.73;2.10;;;10.80;85.60;;;;;;6226720;23;20702;-78
2024/04/11 06:15:02;;;;;;;4.90;1.80;;;10.90;84.90;;;;;;6152851;23;20389;-76
2024/04/11 06:17:28;;;;;;;5.47;1.93;;;11.00;83.90;;;;;;6199392;23;20393;-76
2024/04/11 06:20:01;;;;;;;5.77;1.90;;;11.10;83.30;;;;;;6227391;23;20904;-78
2024/04/11 06:22:28;;;;;;;3.93;1.70;;;11.20;82.70;;;;;;6226446;23;20138;-76
2024/04/11 06:24:53;;;;;;;7.50;2.30;;;11.20;82.20;;;;;;6226699;23;20376;-79
2024/04/11 06:27:20;;;;;;;4.60;2.40;;;11.30;81.20;;;;;;6206301;23;20401;-76
2024/04/11 06:29:47;;;;;;;5.30;1.80;;;11.40;81.30;;;;;;6208916;23;20419;-76
2024/04/11 06:32:13;;;;;;;4.53;2.07;;;11.40;80.80;;;;;;6209197;23;20134;-75
2024/04/11 06:34:43;;;;;;;5.83;2.37;;;11.40;80.60;;;;;;6185076;23;20396;-77
2024/04/11 06:37:13;;;;;;;5.97;2.37;;;11.40;80.30;;;;;;6183675;23;20173;-75
2024/04/11 06:39:39;;;;;;;3.10;1.60;;;11.50;80.90;;;;;;6182977;23;20459;-75
2024/04/11 06:42:13;;;;;;;7.07;3.47;;;11.50;80.70;;;;;;6232968;23;20376;-77
2024/04/11 06:44:45;;;;;;;3.80;2.40;;;11.50;80.30;;;;;;6202974;23;20379;-76
2024/04/11 06:47:12;;;;;;;5.57;1.87;;;11.60;80.80;;;;;;6241627;23;20409;-76
2024/04/11 06:49:39;;;;;;;4.60;2.03;;;11.60;80.70;;;;;;6256159;23;20409;-76
2024/04/11 06:52:05;;;;;;;6.73;2.10;;;11.60;80.10;;;;;;6254897;23;20379;-75
2024/04/11 06:54:33;;;;;;;5.10;2.20;;;11.70;80.20;;;;;;6182140;23;20419;-74
2024/04/11 06:57:03;;;;;;;5.60;1.80;;;11.70;80.00;;;;;;6206173;23;20397;-77
2024/04/11 06:59:30;;;;;;;4.10;2.47;;;11.80;80.00;;;;;;6231035;23;20384;-76
2024/04/11 07:01:58;;;;;;;8.83;2.47;;;11.80;79.60;;;;;;6259885;23;20460;-78
2024/04/11 07:04:24;;;;;;;3.63;2.33;;;11.80;79.50;;;;;;6232773;23;20448;-75
2024/04/11 07:06:49;;;;;;;2.90;1.73;;;12.00;79.80;;;;;;6205501;23;20537;-76
2024/04/11 07:09:16;;;;;;;5.93;3.40;;;12.00;79.40;;;;;;6257559;23;20408;-77
2024/04/11 07:11:42;;;;;;;5.30;1.80;;;12.00;79.00;;;;;;6256545;23;20149;-75
2024/04/11 07:14:15;;;;;;;4.63;2.10;;;12.00;78.90;;;;;;6259044;23;20355;-78
2024/04/11 07:16:44;;;;;;;5.33;1.73;;;12.10;78.60;;;;;;6234872;23;20166;-76
2024/04/11 07:19:16;;;;;;;4.43;1.87;;;12.10;78.60;;;;;;6238851;23;20437;-79
2024/04/11 07:21:48;;;;;;;3.43;2.10;;;12.20;78.20;;;;;;6241114;23;20395;-80
2024/04/11 07:24:14;;;;;;;7.37;2.00;;;12.30;77.60;;;;;;6237749;23;20380;-80
2024/04/11 07:26:40;;;;;;;5.37;2.13;;;12.40;77.30;;;;;;6238879;23;20404;-78
2024/04/11 07:29:08;;;;;;;7.07;2.20;;;12.60;77.30;;;;;;6237967;23;20183;-78
2024/04/11 07:31:36;;;;;;;7.60;2.37;;;12.70;76.90;;;;;;6262365;23;20372;-79
2024/04/11 07:34:04;;;;;;;5.00;2.60;;;12.70;76.50;;;;;;6237459;23;20360;-79
2024/04/11 07:36:32;;;;;;;4.60;2.20;;;12.70;75.80;;;;;;6239304;23;20411;-79
2024/04/11 07:38:58;;;;;;;4.27;2.10;;;12.70;75.30;;;;;;6238525;23;20430;-78
2024/04/11 07:41:44;;;;;;;4.60;2.20;;;12.70;75.90;;;;;;6238288;23;20379;-77
2024/04/11 07:44:11;;;;;;;5.43;2.27;;;12.80;76.00;;;;;;6264890;23;20361;-80
2024/04/11 07:46:37;;;;;;;4.47;1.83;;;12.80;75.80;;;;;;6239727;23;20415;-79
2024/04/11 07:49:07;;;;;;;4.50;2.03;;;13.00;75.60;;;;;;6240373;23;20459;-79
2024/04/11 07:51:36;;;;;;;3.10;1.63;;;13.00;75.00;;;;;;6216849;23;20364;-78
2024/04/11 07:54:12;;;;;;;3.33;1.90;;;13.10;75.20;;;;;;6214724;23;20372;-78
2024/04/11 07:56:39;;;;;;;2.60;1.67;;;13.20;74.80;;;;;;6192926;23;20441;-79
2024/04/11 07:59:09;;;;;;;3.50;1.83;;;13.30;74.50;;;;;;6212175;23;20477;-78
2024/04/11 08:01:41;;;;;;;4.67;1.90;;;13.40;73.80;;;;;;6183197;23;20524;-78
2024/04/11 08:04:12;;;;;;;6.73;1.97;;;13.50;73.10;;;;;;6235300;23;20369;-79
2024/04/11 08:06:39;;;;;;;4.77;1.90;;;13.50;72.30;;;;;;6183232;23;20405;-76
2024/04/11 08:09:08;;;;;;;2.70;1.53;;;13.60;72.00;;;;;;6203404;23;20420;-77
2024/04/11 08:11:35;;;;;;;5.17;1.30;;;13.60;71.80;;;;;;6228954;23;20349;-76
2024/04/11 08:14:05;;;;;;;4.63;2.17;;;13.60;71.50;;;;;;6203322;23;20809;-77
2024/04/11 08:16:34;;;;;;;4.97;1.90;;;13.60;71.20;;;;;;6228017;23;20404;-77
2024/04/11 08:19:02;;;;;;;5.07;2.10;;;13.70;71.20;;;;;;6203894;23;20440;-75
2024/04/11 08:21:32;;;;;;;5.90;1.90;;;13.70;70.90;;;;;;6202251;23;20377;-75
2024/04/11 08:24:01;;;;;;;5.63;1.87;;;13.80;70.60;;;;;;6207557;23;20804;-77
2024/04/11 08:26:27;;;;;;;5.40;2.03;;;13.80;70.10;;;;;;6206696;23;20413;-77
2024/04/11 08:28:55;;;;;;;5.03;1.90;;;13.80;68.60;;;;;;6206116;23;20504;-78
2024/04/11 08:31:30;;;;;;;3.30;1.57;;;13.80;67.90;;;;;;6206260;23;20374;-79
2024/04/11 08:33:59;;;;;;;4.47;2.10;;;14.00;67.90;;;;;;6181115;23;20468;-75
2024/04/11 08:36:25;;;;;;;4.60;1.97;;;14.10;67.10;;;;;;6203284;23;20436;-79
2024/04/11 08:38:51;;;;;;;6.90;1.73;;;14.20;66.40;;;;;;6203422;23;20381;-76
2024/04/11 08:41:16;;;;;;;3.27;1.40;;;14.30;65.80;;;;;;6180737;23;20391;-77
2024/04/11 08:43:45;;;;;;;4.33;2.13;;;14.40;65.20;;;;;;6203127;23;20372;-75
2024/04/11 08:46:11;;;;;;;2.17;1.60;;;14.50;64.30;;;;;;6203769;23;20228;-77
2024/04/11 08:48:40;;;;;;;3.90;2.00;;;14.60;64.30;;;;;;6231184;23;20463;-77
2024/04/11 08:51:20;;;;;;;5.07;2.40;;;14.70;64.10;;;;;;6231199;23;20452;-76
2024/04/11 08:53:48;;;;;;;4.70;1.80;;;14.70;63.00;;;;;;6233901;23;20381;-80
2024/04/11 08:56:16;;;;;;;6.40;2.43;;;14.80;63.10;;;;;;6209261;23;20476;-78
2024/04/11 08:58:43;;;;;;;2.80;1.60;;;14.90;62.20;;;;;;6205634;23;20479;-77
2024/04/11 09:01:14;;;;;;;4.87;1.93;;;14.90;62.20;;;;;;6211710;23;20358;-79
2024/04/11 09:03:40;;;;;;;2.00;1.07;;;15.00;61.90;;;;;;6186635;23;20392;-76
2024/04/11 09:06:14;;;;;;;3.20;1.90;;;15.10;61.90;;;;;;6206284;23;20425;-75
2024/04/11 09:08:40;;;;;;;2.30;1.30;;;15.10;61.60;;;;;;6231062;23;20425;-75
2024/04/11 09:11:09;;;;;;;4.00;1.90;;;15.20;61.60;;;;;;6232926;23;20361;-77
2024/04/11 09:13:36;;;;;;;6.63;1.70;;;15.20;61.30;;;;;;6183816;23;20381;-77
2024/04/11 09:16:05;;;;;;;3.73;1.83;;;15.40;61.10;;;;;;6210698;23;20376;-79
2024/04/11 09:18:34;;;;;;;4.47;2.07;;;15.40;60.90;;;;;;6210560;23;20377;-78
2024/04/11 09:21:07;;;;;;;5.83;1.80;;;15.60;60.50;;;;;;6206845;23;20400;-76
2024/04/11 09:23:47;;;;;;;5.17;1.30;;;15.70;60.30;;;;;;6235952;23;20767;-78
2024/04/11 09:26:13;;;;;;;3.60;1.30;;;15.90;59.90;;;;;;6208829;23;20487;-79
2024/04/11 09:28:40;;;;;;;12.33;2.83;;;16.00;59.70;;;;;;6208192;23;20441;-78
2024/04/11 09:31:07;;;;;;;5.13;1.80;;;16.10;59.10;;;;;;6236093;23;20369;-78
2024/04/11 09:33:39;;;;;;;3.50;1.83;;;16.20;59.10;;;;;;6233414;23;20410;-77
2024/04/11 09:36:11;;;;;;;3.13;1.70;;;16.30;59.00;;;;;;6212516;23;20399;-79
2024/04/11 09:38:42;;;;;;;4.50;1.37;;;16.40;58.70;;;;;;6188275;23;20473;-80
2024/04/11 09:41:13;;;;;;;3.53;1.83;;;16.40;58.30;;;;;;6184331;23;20380;-78
2024/04/11 09:43:41;;;;;;;5.03;1.60;;;16.40;58.40;;;;;;6238753;23;20372;-78
2024/04/11 09:46:17;;;;;;;5.50;1.77;;;16.30;58.20;;;;;;6210246;23;20404;-77
2024/04/11 09:48:47;;;;;;;2.63;1.27;;;16.30;58.40;;;;;;6236959;23;20526;-78
2024/04/11 09:51:15;;;;;;;7.20;2.57;;;16.30;58.30;;;;;;6214338;23;20376;-79
2024/04/11 09:53:42;;;;;;;5.23;1.63;;;16.40;58.20;;;;;;6187572;23;20367;-78
2024/04/11 09:56:14;;;;;;;3.03;1.30;;;16.60;58.30;;;;;;6185583;23;20390;-75
2024/04/11 09:58:45;;;;;;;8.27;2.50;;;16.60;58.10;;;;;;6208982;23;20416;-79
2024/04/11 10:01:30;;;;;;;3.13;1.70;;;16.70;57.90;;;;;;6208162;23;20350;-76
2024/04/11 10:04:04;;;;;;;2.60;1.30;;;16.70;57.70;;;;;;6186440;23;20437;-78
2024/04/11 10:06:30;;;;;;;2.90;1.50;;;16.60;57.70;;;;;;6232691;23;20667;-77
2024/04/11 10:09:31;;;;;;;4.37;1.60;;;16.60;57.90;;;;;;6207528;23;20435;-77
2024/04/11 10:12:05;;;;;;;4.53;1.70;;;16.70;57.80;;;;;;6193359;23;20371;-80
2024/04/11 10:14:35;;;;;;;4.35;1.77;;;16.70;58.00;;;;;;6185446;23;20647;-78
2024/04/11 10:17:07;;;;;;;2.70;1.57;;;16.80;58.10;;;;;;6234433;23;20166;-78
2024/04/11 10:19:38;;;;;;;7.97;3.20;;;16.80;58.10;;;;;;6209304;23;20392;-78
2024/04/11 10:22:08;;;;;;;4.63;1.53;;;16.90;58.00;;;;;;6208288;23;20397;-79
2024/04/11 10:24:38;;;;;;;2.80;1.57;;;16.90;57.60;;;;;;6231481;23;20381;-78
2024/04/11 10:27:09;;;;;;;4.70;1.40;;;16.90;58.00;;;;;;6211222;23;20396;-80
2024/04/11 10:29:49;;;;;;;4.63;2.20;;;17.00;57.90;;;;;;6183989;23;20446;-76
2024/04/11 10:32:26;;;;;;;2.90;1.63;;;17.00;58.20;;;;;;6234481;23;20344;-79
2024/04/11 10:34:56;;;;;;;7.97;2.90;;;17.20;58.20;;;;;;6235320;23;20371;-77
2024/04/11 10:37:26;;;;;;;5.83;2.07;;;17.30;58.00;;;;;;6182840;23;20396;-78
2024/04/11 10:39:57;;;;;;;7.37;2.20;;;17.50;57.30;;;;;;6209045;23;20444;-79
2024/04/11 10:42:36;;;;;;;3.10;1.70;;;17.70;57.40;;;;;;6234742;23;20476;-81
2024/04/11 10:45:11;;;;;;;2.97;1.40;;;17.70;57.40;;;;;;6212865;23;20376;-79
2024/04/11 10:47:41;;;;;;;3.70;1.50;;;17.90;57.10;;;;;;6236705;23;20392;-78
2024/04/11 10:50:15;;;;;;;5.00;1.93;;;17.90;57.10;;;;;;6187109;23;20419;-77
2024/04/11 10:52:45;;;;;;;2.73;1.80;;;17.90;56.60;;;;;;6188887;23;20442;-79
2024/04/11 10:55:22;;;;;;;3.27;1.57;;;18.00;56.90;;;;;;6187088;23;20468;-77
2024/04/11 10:57:56;;;;;;;7.03;2.40;;;18.10;56.70;;;;;;6236551;23;20430;-78
2024/04/11 11:00:52;;;;;;;7.70;2.20;;;18.30;56.20;;;;;;6118628;23;20390;-79
2024/04/11 11:03:14;;;;;;;4.40;2.07;;;18.40;56.00;;;;;;6121965;23;20391;-78
2024/04/11 11:05:45;;;;;;;4.00;1.40;;;18.50;56.20;;;;;;6169853;23;20387;-79
2024/04/11 11:08:12;;;;;;;8.83;2.20;;;18.60;56.10;;;;;;6141901;23;20384;-79
2024/04/11 11:10:40;;;;;;;6.97;2.50;;;18.70;55.60;;;;;;6141885;23;20372;-78
2024/04/11 11:13:06;;;;;;;3.97;1.80;;;18.70;55.50;;;;;;6142860;23;20395;-75
2024/04/11 11:15:34;;;;;;;5.50;1.73;;;18.80;55.40;;;;;;6120451;23;20371;-79
2024/04/11 11:18:00;;;;;;;6.30;1.80;;;18.80;55.80;;;;;;6119621;23;20415;-78
2024/04/11 11:20:27;;;;;;;3.90;2.00;;;18.90;55.60;;;;;;6119215;23;20367;-78
2024/04/11 11:22:56;;;;;;;5.47;2.50;;;18.80;55.70;;;;;;6096319;23;20388;-78
2024/04/11 11:25:23;;;;;;;11.70;2.17;;;18.70;56.00;;;;;;6120639;23;20468;-79
2024/04/11 11:27:51;;;;;;;4.50;2.47;;;18.60;56.40;;;;;;6122504;23;20403;-79
2024/04/11 11:30:17;;;;;;;4.30;2.30;;;18.50;57.40;;;;;;6121956;23;20419;-79
2024/04/11 11:32:45;;;;;;;6.87;2.70;;;18.50;57.50;;;;;;6149125;23;20402;-81
2024/04/11 11:35:24;;;;;;;5.03;2.13;;;18.50;57.60;;;;;;6106423;23;20399;-80
2024/04/11 11:38:11;;;;;;;3.80;1.87;;;18.40;57.90;;;;;;6206280;22;20456;-79
2024/04/11 11:40:39;;;;;;;2.43;1.33;;;18.40;58.00;;;;;;6238139;23;20770;-80
2024/04/11 11:43:06;;;;;;;2.90;1.43;;;18.50;58.30;;;;;;6188067;23;20142;-79
2024/04/11 11:45:45;;;;;;;3.20;1.60;;;18.50;58.30;;;;;;6212896;23;20365;-80
2024/04/11 11:48:13;;;;;;;5.10;2.20;;;18.50;58.20;;;;;;6211834;23;20380;-79
2024/04/11 11:50:40;;;;;;;7.07;2.40;;;18.50;58.60;;;;;;6238874;23;20353;-79
2024/04/11 11:55:55;;;;;;;3.83;1.90;;;18.20;59.80;;;;;;6211191;23;20951;-77
2024/04/11 11:58:23;;;;;;;3.33;1.80;;;18.10;60.10;;;;;;6210144;23;20457;-78
2024/04/11 12:00:50;;;;;;;4.67;2.00;;;18.30;60.20;;;;;;6185468;23;20460;-80
2024/04/11 12:03:20;;;;;;;3.77;1.97;;;18.40;60.30;;;;;;6209559;23;20381;-77
2024/04/11 12:05:50;;;;;;;5.60;2.20;;;18.40;61.00;;;;;;6206997;23;20435;-77
2024/04/11 12:08:16;;;;;;;3.13;1.50;;;18.60;61.20;;;;;;6208488;23;20397;-77
2024/04/11 12:13:44;;;;;;;2.63;2.07;;;19.00;61.20;;;;;;6206463;23;20782;-78
2024/04/11 12:16:15;;;;;;;5.03;2.40;;;19.00;61.20;;;;;;6209331;23;20427;-79
2024/04/11 12:18:42;;;;;;;7.30;2.50;;;19.10;60.80;;;;;;6183222;23;20436;-79
2024/04/11 12:21:34;;;;;;;4.53;1.70;;;19.20;60.60;;;;;;6235891;23;20392;-79
2024/04/11 12:23:57;;;;;;;3.23;1.73;;;19.30;60.30;;;;;;6234119;23;20361;-78
2024/04/11 12:26:22;;;;;;;4.40;2.20;;;19.50;60.70;;;;;;6187746;23;20393;-78
2024/04/11 12:28:50;;;;;;;3.50;2.00;;;19.70;60.50;;;;;;6209619;23;20443;-77
2024/04/11 12:31:19;;;;;;;4.37;2.40;;;19.80;60.30;;;;;;6209339;23;20214;-77
2024/04/11 12:33:47;;;;;;;3.33;2.30;;;20.00;59.90;;;;;;6209703;23;20365;-77
2024/04/11 12:39:11;;;;;;;2.17;1.63;;;20.00;60.40;;;;;;6206973;23;20436;-77
2024/04/11 12:41:42;;;;;;;3.07;1.70;;;20.10;60.20;;;;;;6184104;23;20404;-76
2024/04/11 12:44:14;;;;;;;4.83;2.80;;;20.10;60.60;;;;;;6179040;23;20467;-77
2024/04/11 12:46:52;;;;;;;6.97;2.47;;;20.00;61.10;;;;;;6182910;23;20659;-78
2024/04/11 12:49:20;;;;;;;3.77;1.70;;;19.70;61.90;;;;;;6208904;23;20476;-78
2024/04/11 12:51:46;;;;;;;3.00;1.20;;;19.50;63.20;;;;;;6186315;23;20408;-78
2024/04/11 12:54:16;;;;;;;4.60;1.80;;;19.50;63.80;;;;;;6207845;23;20376;-78
2024/04/11 12:56:45;;;;;;;2.00;1.27;;;19.50;65.20;;;;;;6206673;23;20394;-79
2024/04/11 12:59:28;;;;;;;2.87;1.80;;;19.70;65.00;;;;;;6201479;23;20388;-78
2024/04/11 13:01:58;;;;;;;5.13;1.53;;;19.80;64.90;;;;;;6163830;23;20385;-78
2024/04/11 13:04:34;;;;;;;2.17;1.07;;;19.70;65.10;;;;;;6204834;23;20479;-77
2024/04/11 13:07:10;;;;;;;4.90;1.50;;;19.70;65.80;;;;;;6204179;23;20394;-78